createdAt,value
2018-03-23T00:00:19.091Z,0.00
2018-03-23T00:01:19.106Z,0.00
2018-03-23T00:02:19.131Z,0.00
2018-03-23T00:03:19.146Z,0.00
2018-03-23T00:04:19.174Z,0.00
2018-03-23T00:05:19.187Z,0.00
2018-03-23T00:06:19.205Z,0.00
2018-03-23T00:07:19.226Z,0.00
2018-03-23T00:08:19.260Z,0.00
2018-03-23T00:09:19.260Z,0.00
2018-03-23T00:10:19.283Z,0.00
2018-03-23T00:11:19.304Z,0.00
2018-03-23T00:12:19.324Z,0.00
2018-03-23T00:13:19.341Z,0.00
2018-03-23T00:14:19.358Z,0.00
2018-03-23T00:15:19.385Z,0.00
2018-03-23T00:16:19.405Z,0.00
2018-03-23T00:17:19.417Z,0.00
2018-03-23T00:18:19.441Z,0.00
2018-03-23T00:19:19.461Z,0.00
2018-03-23T00:20:19.479Z,0.00
2018-03-23T00:21:19.504Z,0.00
2018-03-23T00:22:19.520Z,0.00
2018-03-23T00:23:19.538Z,0.00
2018-03-23T00:24:19.558Z,0.00
2018-03-23T00:25:19.575Z,0.00
2018-03-23T00:26:19.593Z,0.00
2018-03-23T00:27:19.620Z,0.00
2018-03-23T00:28:19.637Z,0.00
2018-03-23T00:29:19.656Z,0.00
2018-03-23T00:30:19.680Z,0.00
2018-03-23T00:31:19.692Z,0.00
2018-03-23T00:32:19.709Z,0.00
2018-03-23T00:33:19.738Z,0.00
2018-03-23T00:34:19.749Z,0.00
2018-03-23T00:35:19.776Z,0.00
2018-03-23T00:36:19.796Z,0.00
2018-03-23T00:37:19.808Z,0.00
2018-03-23T00:38:19.835Z,0.00
2018-03-23T00:39:19.846Z,0.00
2018-03-23T00:40:19.873Z,0.00
2018-03-23T00:41:19.889Z,0.00
2018-03-23T00:42:19.915Z,0.00
2018-03-23T00:43:19.924Z,0.00
2018-03-23T00:44:19.943Z,0.00
2018-03-23T00:45:19.972Z,0.00
2018-03-23T00:46:19.982Z,0.00
2018-03-23T00:47:20.012Z,0.00
2018-03-23T00:48:20.024Z,0.00
2018-03-23T00:49:20.046Z,0.00
2018-03-23T00:50:20.065Z,0.00
2018-03-23T00:51:20.084Z,0.00
2018-03-23T00:52:20.104Z,0.00
2018-03-23T00:53:20.126Z,0.00
2018-03-23T00:54:20.143Z,0.00
2018-03-23T00:55:20.164Z,0.00
2018-03-23T00:56:20.182Z,0.00
2018-03-23T00:57:20.199Z,0.00
2018-03-23T00:58:20.217Z,0.00
2018-03-23T00:59:20.243Z,0.00
2018-03-23T01:00:20.256Z,0.00
2018-03-23T01:01:20.279Z,0.00
2018-03-23T01:02:20.301Z,0.00
2018-03-23T01:03:20.312Z,0.00
2018-03-23T01:04:20.332Z,0.00
2018-03-23T01:05:20.354Z,0.00
2018-03-23T01:06:20.379Z,0.00
2018-03-23T01:07:20.392Z,0.00
2018-03-23T01:08:20.417Z,0.00
2018-03-23T01:09:20.429Z,0.00
2018-03-23T01:10:20.450Z,0.00
2018-03-23T01:11:20.468Z,0.00
2018-03-23T01:12:20.491Z,0.00
2018-03-23T01:13:20.511Z,0.00
2018-03-23T01:14:20.535Z,0.00
2018-03-23T01:15:20.545Z,0.00
2018-03-23T01:16:20.569Z,0.00
2018-03-23T01:17:20.587Z,0.00
2018-03-23T01:18:20.603Z,0.00
2018-03-23T01:19:20.631Z,0.00
2018-03-23T01:20:20.644Z,0.00
2018-03-23T01:21:20.666Z,0.00
2018-03-23T01:22:20.690Z,0.00
2018-03-23T01:23:20.705Z,0.00
2018-03-23T01:24:20.719Z,0.00
2018-03-23T01:25:20.743Z,0.00
2018-03-23T01:26:20.785Z,0.00
2018-03-23T01:27:20.781Z,0.00
2018-03-23T01:28:20.797Z,0.00
2018-03-23T01:29:20.825Z,0.00
2018-03-23T01:30:20.838Z,0.00
2018-03-23T01:31:20.863Z,0.00
2018-03-23T01:32:20.883Z,0.00
2018-03-23T01:33:20.899Z,0.00
2018-03-23T01:34:20.965Z,0.00
2018-03-23T01:35:20.933Z,0.00
2018-03-23T01:36:20.958Z,0.00
2018-03-23T01:37:20.974Z,0.00
2018-03-23T01:38:20.992Z,0.00
2018-03-23T01:39:21.013Z,0.00
2018-03-23T01:40:21.038Z,0.00
2018-03-23T01:41:21.057Z,0.00
2018-03-23T01:42:21.071Z,0.00
2018-03-23T01:43:21.094Z,0.00
2018-03-23T01:44:21.109Z,0.00
2018-03-23T01:45:21.132Z,0.00
2018-03-23T01:46:21.154Z,0.00
2018-03-23T01:47:21.165Z,0.00
2018-03-23T01:48:21.193Z,0.00
2018-03-23T01:49:21.206Z,0.00
2018-03-23T01:50:21.223Z,0.00
2018-03-23T01:51:21.250Z,0.00
2018-03-23T01:52:21.263Z,0.00
2018-03-23T01:53:21.289Z,0.00
2018-03-23T01:54:21.305Z,0.00
2018-03-23T01:55:21.319Z,0.00
2018-03-23T01:56:21.338Z,0.00
2018-03-23T01:57:21.360Z,0.00
2018-03-23T01:58:21.377Z,0.00
2018-03-23T01:59:21.405Z,0.00
2018-03-23T02:00:21.416Z,0.00
2018-03-23T02:01:21.443Z,0.00
2018-03-23T02:02:21.462Z,0.00
2018-03-23T02:03:21.475Z,0.00
2018-03-23T02:04:21.500Z,0.00
2018-03-23T02:05:21.516Z,0.00
2018-03-23T02:06:21.534Z,0.00
2018-03-23T02:07:21.555Z,0.00
2018-03-23T02:08:21.574Z,0.00
2018-03-23T02:09:21.593Z,0.00
2018-03-23T02:10:21.613Z,0.00
2018-03-23T02:11:21.629Z,0.00
2018-03-23T02:12:21.654Z,0.00
2018-03-23T02:13:21.673Z,0.00
2018-03-23T02:14:21.687Z,0.00
2018-03-23T02:15:21.703Z,0.00
2018-03-23T02:16:21.732Z,0.00
2018-03-23T02:17:21.743Z,0.00
2018-03-23T02:18:21.771Z,0.00
2018-03-23T02:19:21.781Z,0.00
2018-03-23T02:20:21.800Z,0.00
2018-03-23T02:21:21.828Z,0.00
2018-03-23T02:22:21.839Z,0.00
2018-03-23T02:23:21.864Z,0.00
2018-03-23T02:24:21.882Z,0.00
2018-03-23T02:25:21.900Z,0.00
2018-03-23T02:26:21.915Z,0.00
2018-03-23T02:27:21.935Z,0.00
2018-03-23T02:28:21.962Z,0.00
2018-03-23T02:29:21.980Z,0.00
2018-03-23T02:30:21.996Z,0.00
2018-03-23T02:31:22.019Z,0.00
2018-03-23T02:32:22.039Z,0.00
2018-03-23T02:33:22.053Z,0.00
2018-03-23T02:34:22.072Z,0.00
2018-03-23T02:35:22.094Z,0.00
2018-03-23T02:36:22.109Z,0.00
2018-03-23T02:37:22.138Z,0.00
2018-03-23T02:38:22.153Z,0.00
2018-03-23T02:39:22.171Z,0.00
2018-03-23T02:40:22.194Z,0.00
2018-03-23T02:41:22.257Z,0.00
2018-03-23T02:42:22.269Z,0.00
2018-03-23T02:43:22.248Z,0.00
2018-03-23T02:44:22.268Z,0.00
2018-03-23T02:45:22.290Z,0.00
2018-03-23T02:46:22.305Z,0.00
2018-03-23T02:47:22.322Z,0.00
2018-03-23T02:48:22.339Z,0.00
2018-03-23T02:49:22.367Z,0.00
2018-03-23T02:50:22.383Z,0.00
2018-03-23T02:51:22.399Z,0.00
2018-03-23T02:52:22.424Z,0.00
2018-03-23T02:53:22.437Z,0.00
2018-03-23T02:54:22.457Z,0.00
2018-03-23T02:55:22.479Z,0.00
2018-03-23T02:56:22.491Z,0.00
2018-03-23T02:57:22.523Z,0.00
2018-03-23T02:58:22.531Z,0.00
2018-03-23T02:59:22.558Z,0.00
2018-03-23T03:00:22.577Z,0.00
2018-03-23T03:01:22.588Z,0.00
2018-03-23T03:02:22.616Z,0.00
2018-03-23T03:03:22.626Z,0.00
2018-03-23T03:04:22.648Z,0.00
2018-03-23T03:05:22.669Z,0.00
2018-03-23T03:06:22.687Z,0.00
2018-03-23T03:07:22.709Z,0.00
2018-03-23T03:08:22.732Z,0.00
2018-03-23T03:09:22.743Z,0.00
2018-03-23T03:10:22.766Z,0.00
2018-03-23T03:11:22.782Z,0.00
2018-03-23T03:12:22.800Z,0.00
2018-03-23T03:13:22.833Z,0.00
2018-03-23T03:14:22.844Z,0.00
2018-03-23T03:15:22.861Z,0.00
2018-03-23T03:16:22.880Z,0.00
2018-03-23T03:17:22.898Z,0.00
2018-03-23T03:18:22.919Z,0.00
2018-03-23T03:19:22.936Z,0.00
2018-03-23T03:20:22.957Z,0.00
2018-03-23T03:21:22.974Z,0.00
2018-03-23T03:22:22.996Z,0.00
2018-03-23T03:23:23.014Z,0.00
2018-03-23T03:24:23.031Z,0.00
2018-03-23T03:25:23.053Z,0.00
2018-03-23T03:26:23.071Z,0.00
2018-03-23T03:27:23.092Z,0.00
2018-03-23T03:28:23.120Z,0.00
2018-03-23T03:29:23.129Z,0.00
2018-03-23T03:30:23.153Z,0.00
2018-03-23T03:31:23.173Z,0.00
2018-03-23T03:32:23.191Z,0.00
2018-03-23T03:33:23.206Z,0.00
2018-03-23T03:34:23.231Z,0.00
2018-03-23T03:35:23.240Z,0.00
2018-03-23T03:36:23.267Z,0.00
2018-03-23T03:37:23.280Z,0.00
2018-03-23T03:38:23.301Z,0.00
2018-03-23T03:39:23.322Z,0.00
2018-03-23T03:40:23.340Z,0.00
2018-03-23T03:41:23.364Z,0.00
2018-03-23T03:42:23.380Z,0.00
2018-03-23T03:43:23.395Z,0.00
2018-03-23T03:44:23.414Z,0.00
2018-03-23T03:45:23.437Z,0.00
2018-03-23T03:46:23.453Z,0.00
2018-03-23T03:47:23.471Z,0.00
2018-03-23T03:48:23.488Z,0.00
2018-03-23T03:49:23.511Z,0.00
2018-03-23T03:50:23.528Z,0.00
2018-03-23T03:51:23.555Z,0.00
2018-03-23T03:52:23.570Z,0.00
2018-03-23T03:53:23.593Z,0.00
2018-03-23T03:54:23.608Z,0.00
2018-03-23T03:55:23.625Z,0.00
2018-03-23T03:56:23.648Z,0.00
2018-03-23T03:57:23.661Z,0.00
2018-03-23T03:58:23.683Z,0.00
2018-03-23T03:59:23.705Z,0.00
2018-03-23T04:00:23.719Z,0.00
2018-03-23T04:01:23.745Z,0.00
2018-03-23T04:02:23.757Z,0.00
2018-03-23T04:03:23.783Z,0.00
2018-03-23T04:04:23.802Z,0.00
2018-03-23T04:05:23.814Z,0.00
2018-03-23T04:06:23.842Z,0.00
2018-03-23T04:07:23.853Z,0.00
2018-03-23T04:08:23.873Z,0.00
2018-03-23T04:09:23.895Z,0.00
2018-03-23T04:10:23.912Z,0.00
2018-03-23T04:11:23.933Z,0.00
2018-03-23T04:12:23.946Z,0.00
2018-03-23T04:13:23.975Z,0.00
2018-03-23T04:14:23.997Z,0.00
2018-03-23T04:15:24.006Z,0.00
2018-03-23T04:16:24.033Z,0.00
2018-03-23T04:17:24.044Z,0.00
2018-03-23T04:18:24.072Z,0.00
2018-03-23T04:19:24.082Z,0.00
2018-03-23T04:20:24.101Z,0.00
2018-03-23T04:21:24.128Z,0.00
2018-03-23T04:22:24.140Z,0.00
2018-03-23T04:23:24.166Z,0.00
2018-03-23T04:24:24.184Z,0.00
2018-03-23T04:25:24.200Z,0.00
2018-03-23T04:26:24.230Z,0.00
2018-03-23T04:27:24.238Z,0.00
2018-03-23T04:28:24.268Z,0.00
2018-03-23T04:29:24.274Z,0.00
2018-03-23T04:30:24.300Z,0.00
2018-03-23T04:31:24.317Z,0.00
2018-03-23T04:32:24.331Z,0.00
2018-03-23T04:33:24.361Z,0.00
2018-03-23T04:34:24.371Z,0.00
2018-03-23T04:35:24.391Z,0.00
2018-03-23T04:36:24.411Z,0.00
2018-03-23T04:37:24.428Z,0.00
2018-03-23T04:38:24.451Z,0.00
2018-03-23T04:39:24.473Z,0.00
2018-03-23T04:40:24.493Z,0.00
2018-03-23T04:41:24.510Z,0.00
2018-03-23T04:42:24.532Z,0.00
2018-03-23T04:43:24.541Z,0.00
2018-03-23T04:44:24.566Z,0.00
2018-03-23T04:45:24.583Z,0.00
2018-03-23T04:46:24.599Z,0.00
2018-03-23T04:47:24.626Z,0.00
2018-03-23T04:48:24.640Z,0.00
2018-03-23T04:49:24.663Z,0.00
2018-03-23T04:50:24.679Z,0.00
2018-03-23T04:51:24.695Z,0.00
2018-03-23T04:52:24.715Z,0.00
2018-03-23T04:53:24.736Z,0.00
2018-03-23T04:54:24.771Z,0.00
2018-03-23T04:55:24.784Z,0.00
2018-03-23T04:56:24.795Z,0.00
2018-03-23T04:57:24.812Z,0.00
2018-03-23T04:58:24.829Z,0.00
2018-03-23T04:59:24.855Z,0.00
2018-03-23T05:00:24.869Z,0.00
2018-03-23T05:01:24.891Z,0.00
2018-03-23T05:02:24.915Z,0.00
2018-03-23T05:03:24.924Z,0.00
2018-03-23T05:04:24.951Z,0.00
2018-03-23T05:05:24.966Z,0.00
2018-03-23T05:06:24.981Z,0.00
2018-03-23T05:07:25.002Z,0.00
2018-03-23T05:08:25.028Z,0.00
2018-03-23T05:09:25.044Z,0.00
2018-03-23T05:10:25.060Z,0.00
2018-03-23T05:11:25.082Z,0.00
2018-03-23T05:12:25.103Z,0.00
2018-03-23T05:13:25.114Z,0.00
2018-03-23T05:14:25.136Z,0.00
2018-03-23T05:15:25.158Z,0.00
2018-03-23T05:16:25.172Z,0.00
2018-03-23T05:17:25.200Z,0.00
2018-03-23T05:18:25.217Z,0.00
2018-03-23T05:19:25.232Z,0.00
2018-03-23T05:20:25.251Z,0.00
2018-03-23T05:21:25.273Z,0.00
2018-03-23T05:22:25.296Z,0.00
2018-03-23T05:23:25.305Z,0.00
2018-03-23T05:24:25.325Z,0.00
2018-03-23T05:25:25.347Z,0.00
2018-03-23T05:26:25.363Z,0.00
2018-03-23T05:27:25.386Z,0.00
2018-03-23T05:28:25.408Z,0.00
2018-03-23T05:29:25.457Z,0.00
2018-03-23T05:30:25.445Z,0.00
2018-03-23T05:31:25.461Z,0.00
2018-03-23T05:32:25.482Z,0.00
2018-03-23T05:33:25.503Z,0.00
2018-03-23T05:34:25.519Z,0.00
2018-03-23T05:35:25.542Z,0.00
2018-03-23T05:36:25.552Z,0.00
2018-03-23T05:37:25.582Z,0.00
2018-03-23T05:38:25.593Z,0.00
2018-03-23T05:39:25.668Z,0.00
2018-03-23T05:40:25.633Z,0.00
2018-03-23T05:41:25.650Z,0.00
2018-03-23T05:42:25.671Z,0.00
2018-03-23T05:43:25.702Z,0.00
2018-03-23T05:44:25.709Z,0.00
2018-03-23T05:45:25.730Z,0.00
2018-03-23T05:46:25.785Z,0.00
2018-03-23T05:47:25.764Z,0.00
2018-03-23T05:48:25.787Z,0.00
2018-03-23T05:49:25.805Z,0.00
2018-03-23T05:50:25.821Z,0.00
2018-03-23T05:51:25.847Z,0.00
2018-03-23T05:52:25.866Z,0.00
2018-03-23T05:53:25.877Z,0.00
2018-03-23T05:54:25.904Z,0.00
2018-03-23T05:55:25.921Z,0.00
2018-03-23T05:56:25.939Z,0.00
2018-03-23T05:57:25.963Z,0.00
2018-03-23T05:58:25.979Z,0.00
2018-03-23T05:59:26.000Z,0.00
2018-03-23T06:00:26.017Z,0.00
2018-03-23T06:01:26.031Z,0.00
2018-03-23T06:02:26.049Z,0.00
2018-03-23T06:03:26.076Z,5.63
2018-03-23T06:04:26.089Z,5.63
2018-03-23T06:05:26.111Z,5.63
2018-03-23T06:06:26.132Z,5.63
2018-03-23T06:07:26.142Z,5.63
2018-03-23T06:08:26.165Z,5.63
2018-03-23T06:09:26.185Z,5.63
2018-03-23T06:10:26.206Z,5.63
2018-03-23T06:11:26.223Z,5.63
2018-03-23T06:12:26.246Z,5.63
2018-03-23T06:13:26.257Z,5.63
2018-03-23T06:14:26.279Z,5.63
2018-03-23T06:15:26.296Z,5.63
2018-03-23T06:16:26.323Z,5.63
2018-03-23T06:17:26.334Z,5.63
2018-03-23T06:18:26.355Z,5.63
2018-03-23T06:19:26.377Z,5.63
2018-03-23T06:20:26.397Z,5.63
2018-03-23T06:21:26.412Z,5.63
2018-03-23T06:22:26.434Z,5.63
2018-03-23T06:23:26.450Z,5.63
2018-03-23T06:24:26.472Z,5.63
2018-03-23T06:25:26.486Z,5.63
2018-03-23T06:26:26.509Z,5.63
2018-03-23T06:27:26.529Z,5.63
2018-03-23T06:28:26.548Z,5.63
2018-03-23T06:29:26.565Z,5.63
2018-03-23T06:30:26.587Z,5.63
2018-03-23T06:31:26.607Z,5.63
2018-03-23T06:32:26.624Z,5.63
2018-03-23T06:33:26.642Z,11.25
2018-03-23T06:34:26.662Z,11.25
2018-03-23T06:35:26.680Z,5.63
2018-03-23T06:36:26.709Z,11.25
2018-03-23T06:37:26.715Z,11.25
2018-03-23T06:38:26.736Z,11.25
2018-03-23T06:39:26.758Z,11.25
2018-03-23T06:40:26.774Z,11.25
2018-03-23T06:41:26.835Z,11.25
2018-03-23T06:42:26.813Z,11.25
2018-03-23T06:43:26.836Z,11.25
2018-03-23T06:44:26.879Z,11.25
2018-03-23T06:45:26.870Z,11.25
2018-03-23T06:46:26.892Z,11.25
2018-03-23T06:47:26.909Z,11.25
2018-03-23T06:48:26.925Z,11.25
2018-03-23T06:49:26.952Z,11.25
2018-03-23T06:50:26.964Z,11.25
2018-03-23T06:51:26.991Z,11.25
2018-03-23T06:52:27.004Z,11.25
2018-03-23T06:53:27.025Z,16.88
2018-03-23T06:54:27.114Z,11.25
2018-03-23T06:55:27.059Z,11.25
2018-03-23T06:56:27.083Z,11.25
2018-03-23T06:57:27.100Z,16.88
2018-03-23T06:58:27.127Z,11.25
2018-03-23T06:59:27.138Z,11.25
2018-03-23T07:00:27.157Z,11.25
2018-03-23T07:01:27.180Z,11.25
2018-03-23T07:02:27.195Z,16.88
2018-03-23T07:03:27.217Z,16.88
2018-03-23T07:04:27.241Z,22.50
2018-03-23T07:05:27.253Z,16.88
2018-03-23T07:06:27.278Z,16.88
2018-03-23T07:07:27.291Z,11.25
2018-03-23T07:08:27.313Z,11.25
2018-03-23T07:09:27.331Z,11.25
2018-03-23T07:10:27.346Z,11.25
2018-03-23T07:11:27.374Z,16.88
2018-03-23T07:12:27.396Z,11.25
2018-03-23T07:13:27.404Z,11.25
2018-03-23T07:14:27.434Z,11.25
2018-03-23T07:15:27.443Z,11.25
2018-03-23T07:16:27.469Z,11.25
2018-03-23T07:17:27.490Z,11.25
2018-03-23T07:18:27.503Z,11.25
2018-03-23T07:19:27.528Z,11.25
2018-03-23T07:20:27.545Z,11.25
2018-03-23T07:21:27.561Z,11.25
2018-03-23T07:22:27.578Z,11.25
2018-03-23T07:23:27.604Z,11.25
2018-03-23T07:24:27.617Z,16.88
2018-03-23T07:25:27.667Z,16.88
2018-03-23T07:26:27.662Z,16.88
2018-03-23T07:27:27.673Z,16.88
2018-03-23T07:28:27.702Z,16.88
2018-03-23T07:29:27.720Z,16.88
2018-03-23T07:30:27.732Z,16.88
2018-03-23T07:31:27.758Z,22.50
2018-03-23T07:32:27.772Z,22.50
2018-03-23T07:33:27.795Z,22.50
2018-03-23T07:34:27.816Z,22.50
2018-03-23T07:35:27.831Z,28.13
2018-03-23T07:36:27.848Z,28.13
2018-03-23T07:37:27.871Z,28.13
2018-03-23T07:38:27.894Z,28.13
2018-03-23T07:39:27.905Z,22.50
2018-03-23T07:40:27.929Z,22.50
2018-03-23T07:41:27.946Z,28.13
2018-03-23T07:42:27.963Z,28.13
2018-03-23T07:43:27.990Z,28.13
2018-03-23T07:44:28.005Z,28.13
2018-03-23T07:45:28.026Z,33.75
2018-03-23T07:46:28.043Z,33.75
2018-03-23T07:47:28.064Z,33.75
2018-03-23T07:48:28.087Z,33.75
2018-03-23T07:49:28.101Z,33.75
2018-03-23T07:50:28.124Z,33.75
2018-03-23T07:51:28.139Z,39.38
2018-03-23T07:52:28.165Z,45.00
2018-03-23T07:53:28.184Z,45.00
2018-03-23T07:54:28.195Z,39.38
2018-03-23T07:55:28.223Z,39.38
2018-03-23T07:56:28.241Z,39.38
2018-03-23T07:57:28.253Z,45.00
2018-03-23T07:58:28.281Z,45.00
2018-03-23T07:59:28.290Z,45.00
2018-03-23T08:00:28.311Z,39.38
2018-03-23T08:01:28.338Z,39.38
2018-03-23T08:02:28.355Z,39.38
2018-03-23T08:03:28.382Z,39.38
2018-03-23T08:04:28.406Z,39.38
2018-03-23T08:05:28.410Z,39.38
2018-03-23T08:06:28.435Z,39.38
2018-03-23T08:07:28.446Z,39.38
2018-03-23T08:08:28.472Z,39.38
2018-03-23T08:09:28.484Z,45.00
2018-03-23T08:10:28.514Z,50.63
2018-03-23T08:11:28.523Z,50.63
2018-03-23T08:12:28.543Z,50.63
2018-03-23T08:13:28.602Z,56.25
2018-03-23T08:14:28.582Z,61.88
2018-03-23T08:15:28.610Z,67.50
2018-03-23T08:16:28.628Z,67.50
2018-03-23T08:17:28.640Z,67.50
2018-03-23T08:18:28.661Z,61.88
2018-03-23T08:19:28.678Z,61.88
2018-03-23T08:20:28.703Z,56.25
2018-03-23T08:21:28.726Z,61.88
2018-03-23T08:22:28.737Z,61.88
2018-03-23T08:23:28.764Z,50.63
2018-03-23T08:24:28.780Z,45.00
2018-03-23T08:25:28.798Z,45.00
2018-03-23T08:26:28.855Z,45.00
2018-03-23T08:27:28.843Z,45.00
2018-03-23T08:28:28.857Z,45.00
2018-03-23T08:29:28.880Z,50.63
2018-03-23T08:30:28.901Z,61.88
2018-03-23T08:31:28.918Z,67.50
2018-03-23T08:32:28.937Z,73.13
2018-03-23T08:33:28.956Z,78.75
2018-03-23T08:34:28.977Z,73.13
2018-03-23T08:35:29.001Z,61.88
2018-03-23T08:36:29.019Z,56.25
2018-03-23T08:37:29.059Z,56.25
2018-03-23T08:38:29.058Z,67.50
2018-03-23T08:39:29.068Z,78.75
2018-03-23T08:40:29.095Z,78.75
2018-03-23T08:41:29.114Z,78.75
2018-03-23T08:42:29.137Z,84.38
2018-03-23T08:43:29.172Z,101.25
2018-03-23T08:44:29.203Z,140.63
2018-03-23T08:45:29.188Z,163.13
2018-03-23T08:46:29.208Z,157.50
2018-03-23T08:47:29.257Z,140.63
2018-03-23T08:48:29.282Z,151.88
2018-03-23T08:49:29.266Z,146.25
2018-03-23T08:50:29.294Z,151.88
2018-03-23T08:51:29.310Z,157.50
2018-03-23T08:52:29.333Z,180.00
2018-03-23T08:53:29.409Z,163.13
2018-03-23T08:54:29.373Z,129.38
2018-03-23T08:55:29.388Z,112.50
2018-03-23T08:56:29.409Z,112.50
2018-03-23T08:57:29.427Z,112.50
2018-03-23T08:58:29.444Z,118.13
2018-03-23T08:59:29.474Z,129.38
2018-03-23T09:00:29.492Z,135.00
2018-03-23T09:01:29.506Z,135.00
2018-03-23T09:02:29.533Z,129.38
2018-03-23T09:03:29.544Z,135.00
2018-03-23T09:04:29.570Z,129.38
2018-03-23T09:05:29.587Z,129.38
2018-03-23T09:06:29.605Z,123.75
2018-03-23T09:07:29.629Z,140.63
2018-03-23T09:08:29.654Z,151.88
2018-03-23T09:09:29.673Z,135.00
2018-03-23T09:10:29.688Z,112.50
2018-03-23T09:11:29.710Z,101.25
2018-03-23T09:12:29.733Z,95.63
2018-03-23T09:13:29.750Z,101.25
2018-03-23T09:14:29.774Z,101.25
2018-03-23T09:15:29.790Z,90.00
2018-03-23T09:16:29.810Z,84.38
2018-03-23T09:17:29.829Z,84.38
2018-03-23T09:18:29.847Z,84.38
2018-03-23T09:19:29.876Z,84.38
2018-03-23T09:20:29.919Z,90.00
2018-03-23T09:21:29.913Z,90.00
2018-03-23T09:22:29.931Z,95.63
2018-03-23T09:23:29.952Z,118.13
2018-03-23T09:24:29.968Z,118.13
2018-03-23T09:25:29.991Z,129.38
2018-03-23T09:26:30.015Z,146.25
2018-03-23T09:27:30.036Z,146.25
2018-03-23T09:28:30.050Z,146.25
2018-03-23T09:29:30.078Z,151.88
2018-03-23T09:30:30.095Z,157.50
2018-03-23T09:31:30.113Z,157.50
2018-03-23T09:32:30.138Z,157.50
2018-03-23T09:33:30.150Z,196.88
2018-03-23T09:34:30.175Z,236.25
2018-03-23T09:35:30.199Z,225.00
2018-03-23T09:36:30.212Z,236.25
2018-03-23T09:37:30.234Z,275.63
2018-03-23T09:38:30.310Z,298.13
2018-03-23T09:39:30.274Z,258.75
2018-03-23T09:40:30.301Z,258.75
2018-03-23T09:41:30.313Z,219.38
2018-03-23T09:42:30.336Z,196.88
2018-03-23T09:43:30.352Z,163.13
2018-03-23T09:44:30.386Z,140.63
2018-03-23T09:45:30.395Z,129.38
2018-03-23T09:46:30.417Z,123.75
2018-03-23T09:47:30.441Z,106.88
2018-03-23T09:48:30.456Z,112.50
2018-03-23T09:49:30.484Z,123.75
2018-03-23T09:50:30.503Z,112.50
2018-03-23T09:51:30.519Z,129.38
2018-03-23T09:52:30.547Z,168.75
2018-03-23T09:53:30.564Z,174.38
2018-03-23T09:54:30.585Z,168.75
2018-03-23T09:55:30.603Z,157.50
2018-03-23T09:56:30.625Z,129.38
2018-03-23T09:57:30.648Z,118.13
2018-03-23T09:58:30.660Z,118.13
2018-03-23T09:59:30.690Z,118.13
2018-03-23T10:00:30.705Z,129.38
2018-03-23T10:01:30.724Z,129.38
2018-03-23T10:02:30.743Z,123.75
2018-03-23T10:03:30.792Z,118.13
2018-03-23T10:04:30.798Z,106.88
2018-03-23T10:05:30.871Z,95.63
2018-03-23T10:06:30.832Z,95.63
2018-03-23T10:07:30.842Z,90.00
2018-03-23T10:08:30.869Z,84.38
2018-03-23T10:09:30.894Z,84.38
2018-03-23T10:10:30.911Z,84.38
2018-03-23T10:11:30.933Z,90.00
2018-03-23T10:12:30.946Z,95.63
2018-03-23T10:13:30.967Z,95.63
2018-03-23T10:14:30.995Z,101.25
2018-03-23T10:15:31.007Z,118.13
2018-03-23T10:16:31.036Z,129.38
2018-03-23T10:17:31.048Z,129.38
2018-03-23T10:18:31.076Z,140.63
2018-03-23T10:19:31.088Z,146.25
2018-03-23T10:20:31.107Z,151.88
2018-03-23T10:21:31.137Z,151.88
2018-03-23T10:22:31.149Z,151.88
2018-03-23T10:23:31.177Z,157.50
2018-03-23T10:24:31.194Z,168.75
2018-03-23T10:25:31.215Z,163.13
2018-03-23T10:26:31.233Z,180.00
2018-03-23T10:27:31.250Z,208.13
2018-03-23T10:28:31.270Z,270.00
2018-03-23T10:29:31.294Z,309.38
2018-03-23T10:30:31.312Z,326.25
2018-03-23T10:31:31.341Z,326.25
2018-03-23T10:32:31.354Z,326.25
2018-03-23T10:33:31.380Z,343.13
2018-03-23T10:34:31.399Z,360.00
2018-03-23T10:35:31.449Z,360.00
2018-03-23T10:36:31.441Z,376.88
2018-03-23T10:37:31.478Z,382.50
2018-03-23T10:38:31.477Z,388.13
2018-03-23T10:39:31.500Z,376.88
2018-03-23T10:40:31.554Z,371.25
2018-03-23T10:41:31.544Z,337.50
2018-03-23T10:42:31.556Z,309.38
2018-03-23T10:43:31.585Z,270.00
2018-03-23T10:44:31.604Z,230.63
2018-03-23T10:45:31.625Z,219.38
2018-03-23T10:46:31.651Z,208.13
2018-03-23T10:47:31.665Z,202.50
2018-03-23T10:48:31.690Z,196.88
2018-03-23T10:49:31.704Z,185.63
2018-03-23T10:50:31.727Z,174.38
2018-03-23T10:51:31.750Z,163.13
2018-03-23T10:52:31.764Z,168.75
2018-03-23T10:53:31.797Z,180.00
2018-03-23T10:54:31.816Z,202.50
2018-03-23T10:55:31.830Z,213.75
2018-03-23T10:56:31.853Z,219.38
2018-03-23T10:57:31.872Z,202.50
2018-03-23T10:58:31.891Z,208.13
2018-03-23T10:59:31.919Z,241.88
2018-03-23T11:00:31.955Z,320.63
2018-03-23T11:01:31.964Z,393.75
2018-03-23T11:02:32.021Z,438.75
2018-03-23T11:03:31.999Z,517.50
2018-03-23T11:04:32.116Z,585.00
2018-03-23T11:05:32.070Z,641.25
2018-03-23T11:06:32.095Z,669.38
2018-03-23T11:07:32.078Z,838.13
2018-03-23T11:08:32.111Z,860.63
2018-03-23T11:09:32.129Z,1006.88
2018-03-23T11:10:32.142Z,832.50
2018-03-23T11:11:32.173Z,708.75
2018-03-23T11:12:32.188Z,748.13
2018-03-23T11:13:32.212Z,855.00
2018-03-23T11:14:32.296Z,691.88
2018-03-23T11:15:32.250Z,573.75
2018-03-23T11:16:32.278Z,585.00
2018-03-23T11:17:32.297Z,461.25
2018-03-23T11:18:32.316Z,382.50
2018-03-23T11:19:32.347Z,360.00
2018-03-23T11:20:32.361Z,309.38
2018-03-23T11:21:32.386Z,298.13
2018-03-23T11:22:32.410Z,399.38
2018-03-23T11:23:32.434Z,1001.25
2018-03-23T11:24:32.459Z,607.50
2018-03-23T11:25:32.471Z,466.88
2018-03-23T11:26:32.503Z,371.25
2018-03-23T11:27:32.516Z,303.75
2018-03-23T11:28:32.539Z,270.00
2018-03-23T11:29:32.569Z,253.13
2018-03-23T11:30:32.583Z,219.38
2018-03-23T11:31:32.612Z,191.25
2018-03-23T11:32:32.635Z,174.38
2018-03-23T11:33:32.649Z,168.75
2018-03-23T11:34:32.680Z,163.13
2018-03-23T11:35:32.693Z,163.13
2018-03-23T11:36:32.718Z,157.50
2018-03-23T11:37:32.744Z,146.25
2018-03-23T11:38:32.761Z,135.00
2018-03-23T11:39:32.787Z,123.75
2018-03-23T11:40:32.809Z,118.13
2018-03-23T11:41:32.827Z,123.75
2018-03-23T11:42:32.852Z,129.38
2018-03-23T11:43:32.867Z,135.00
2018-03-23T11:44:32.897Z,146.25
2018-03-23T11:45:32.911Z,157.50
2018-03-23T11:46:32.941Z,157.50
2018-03-23T11:47:32.954Z,157.50
2018-03-23T11:48:32.975Z,151.88
2018-03-23T11:49:33.005Z,157.50
2018-03-23T11:50:33.021Z,157.50
2018-03-23T11:51:33.047Z,151.88
2018-03-23T11:52:33.060Z,146.25
2018-03-23T11:53:33.091Z,135.00
2018-03-23T11:54:33.102Z,135.00
2018-03-23T11:55:33.132Z,140.63
2018-03-23T11:56:33.153Z,140.63
2018-03-23T11:57:33.180Z,146.25
2018-03-23T11:58:33.197Z,157.50
2018-03-23T11:59:33.208Z,163.13
2018-03-23T12:00:33.235Z,180.00
2018-03-23T12:01:33.256Z,196.88
2018-03-23T12:02:33.273Z,208.13
2018-03-23T12:03:33.301Z,219.38
2018-03-23T12:04:33.316Z,236.25
2018-03-23T12:05:33.340Z,258.75
2018-03-23T12:06:33.364Z,270.00
2018-03-23T12:07:33.432Z,270.00
2018-03-23T12:08:33.404Z,258.75
2018-03-23T12:09:33.418Z,241.88
2018-03-23T12:10:33.448Z,230.63
2018-03-23T12:11:33.467Z,225.00
2018-03-23T12:12:33.481Z,219.38
2018-03-23T12:13:33.510Z,219.38
2018-03-23T12:14:33.528Z,219.38
2018-03-23T12:15:33.546Z,208.13
2018-03-23T12:16:33.568Z,196.88
2018-03-23T12:17:33.592Z,191.25
2018-03-23T12:18:33.616Z,185.63
2018-03-23T12:19:33.629Z,180.00
2018-03-23T12:20:33.654Z,174.38
2018-03-23T12:21:33.710Z,180.00
2018-03-23T12:22:33.691Z,185.63
2018-03-23T12:23:33.719Z,185.63
2018-03-23T12:24:33.737Z,180.00
2018-03-23T12:25:33.761Z,163.13
2018-03-23T12:26:33.774Z,151.88
2018-03-23T12:27:33.803Z,151.88
2018-03-23T12:28:33.824Z,151.88
2018-03-23T12:29:33.837Z,146.25
2018-03-23T12:30:33.865Z,140.63
2018-03-23T12:31:33.884Z,135.00
2018-03-23T12:32:33.902Z,129.38
2018-03-23T12:33:33.928Z,118.13
2018-03-23T12:34:33.942Z,118.13
2018-03-23T12:35:33.969Z,118.13
2018-03-23T12:36:33.990Z,123.75
2018-03-23T12:37:34.003Z,135.00
2018-03-23T12:38:34.033Z,135.00
2018-03-23T12:39:34.044Z,135.00
2018-03-23T12:40:34.071Z,140.63
2018-03-23T12:41:34.096Z,146.25
2018-03-23T12:42:34.110Z,146.25
2018-03-23T12:43:34.140Z,151.88
2018-03-23T12:44:34.148Z,174.38
2018-03-23T12:45:34.181Z,180.00
2018-03-23T12:46:34.198Z,185.63
2018-03-23T12:47:34.213Z,191.25
2018-03-23T12:48:34.239Z,202.50
2018-03-23T12:49:34.252Z,213.75
2018-03-23T12:50:34.280Z,213.75
2018-03-23T12:51:34.293Z,213.75
2018-03-23T12:52:34.313Z,213.75
2018-03-23T12:53:34.342Z,208.13
2018-03-23T12:54:34.356Z,202.50
2018-03-23T12:55:34.382Z,191.25
2018-03-23T12:56:34.404Z,174.38
2018-03-23T12:57:34.418Z,163.13